createdAt,value
2022-08-17T00:02:01.595Z,24.01
2022-08-17T00:05:32.418Z,23.92
2022-08-17T00:09:01.996Z,23.89
2022-08-17T00:12:43.015Z,23.82
2022-08-17T00:16:15.253Z,23.63
2022-08-17T00:19:39.085Z,23.49
2022-08-17T00:23:11.004Z,23.11
2022-08-17T00:26:45.092Z,23.04
2022-08-17T00:30:11.004Z,23.14
2022-08-17T00:33:35.350Z,23.21
2022-08-17T00:36:59.356Z,23.31
2022-08-17T00:40:21.393Z,23.38
2022-08-17T00:43:55.116Z,23.19
2022-08-17T00:47:17.778Z,23.01
2022-08-17T00:50:44.635Z,22.98
2022-08-17T00:54:42.581Z,22.98
2022-08-17T00:58:06.031Z,22.93
2022-08-17T01:01:28.066Z,22.86
2022-08-17T01:04:57.086Z,22.80
2022-08-17T01:08:25.652Z,22.80
2022-08-17T01:11:53.964Z,22.77
2022-08-17T01:15:16.805Z,22.71
2022-08-17T01:18:40.768Z,22.73
2022-08-17T01:22:16.950Z,22.53
2022-08-17T01:25:41.644Z,22.60
2022-08-17T01:29:05.434Z,22.60
2022-08-17T01:32:30.465Z,22.63
2022-08-17T01:35:54.752Z,22.59
2022-08-17T01:39:35.841Z,22.59
2022-08-17T01:43:01.832Z,22.56
2022-08-17T01:46:27.186Z,22.61
2022-08-17T01:49:53.990Z,22.59
2022-08-17T01:53:21.043Z,22.63
2022-08-17T01:56:47.460Z,22.57
2022-08-17T02:00:10.822Z,22.59
2022-08-17T02:03:34.566Z,22.59
2022-08-17T02:06:56.491Z,22.56
2022-08-17T02:10:20.277Z,22.67
2022-08-17T02:13:43.877Z,22.73
2022-08-17T02:17:05.592Z,22.50
2022-08-17T02:20:41.293Z,22.46
2022-08-17T02:24:06.905Z,22.48
2022-08-17T02:27:31.335Z,22.52
2022-08-17T02:31:02.254Z,22.56
2022-08-17T02:34:25.617Z,22.56
2022-08-17T02:37:48.147Z,22.49
2022-08-17T02:41:15.749Z,22.52
2022-08-17T02:44:40.102Z,22.56
2022-08-17T02:48:05.354Z,22.56
2022-08-17T02:51:29.754Z,22.60
2022-08-17T02:54:53.871Z,22.69
2022-08-17T02:58:18.309Z,22.77
2022-08-17T03:01:57.283Z,22.76
2022-08-17T03:05:22.512Z,22.76
2022-08-17T03:08:44.165Z,22.71
2022-08-17T03:12:11.101Z,22.60
2022-08-17T03:15:35.158Z,22.57
2022-08-17T03:18:56.747Z,22.48
2022-08-17T03:22:35.951Z,22.43
2022-08-17T03:25:59.998Z,22.52
2022-08-17T03:29:26.473Z,22.49
2022-08-17T03:32:54.791Z,22.55
2022-08-17T03:36:18.605Z,22.56
2022-08-17T03:39:40.241Z,22.53
2022-08-17T03:43:10.705Z,22.38
2022-08-17T03:46:50.842Z,22.29
2022-08-17T03:50:35.429Z,22.25
2022-08-17T03:54:18.230Z,22.28
2022-08-17T03:57:41.984Z,22.25
2022-08-17T04:01:06.075Z,22.29
2022-08-17T04:04:32.249Z,22.31
2022-08-17T04:07:56.263Z,22.19
2022-08-17T04:11:18.854Z,22.12
2022-08-17T04:14:53.679Z,22.06
2022-08-17T04:18:16.869Z,22.09
2022-08-17T04:21:38.500Z,22.11
2022-08-17T04:25:08.659Z,22.13
2022-08-17T04:28:31.042Z,22.06
2022-08-17T04:31:53.268Z,22.18
2022-08-17T04:35:19.079Z,22.31
2022-08-17T04:38:43.274Z,22.40
2022-08-17T04:42:17.186Z,22.50
2022-08-17T04:45:55.458Z,22.50
2022-08-17T04:49:20.854Z,22.50
2022-08-17T04:52:50.746Z,22.46
2022-08-17T04:56:16.779Z,22.50
2022-08-17T04:59:42.874Z,22.74
2022-08-17T05:03:05.265Z,22.84
2022-08-17T05:06:29.648Z,22.91
2022-08-17T05:09:51.402Z,22.98
2022-08-17T05:13:16.345Z,23.14
2022-08-17T05:16:38.037Z,23.35
2022-08-17T05:19:59.569Z,23.53
2022-08-17T05:23:26.374Z,23.80
2022-08-17T05:26:53.019Z,24.27
2022-08-17T05:30:17.680Z,24.79
2022-08-17T05:33:44.529Z,25.13
2022-08-17T05:37:10.198Z,25.38
2022-08-17T05:40:34.705Z,25.60
2022-08-17T05:43:57.855Z,25.72
2022-08-17T05:47:21.228Z,25.80
2022-08-17T05:51:09.912Z,25.89
2022-08-17T05:54:40.496Z,25.99
2022-08-17T05:58:07.465Z,26.06
2022-08-17T06:01:47.649Z,26.13
2022-08-17T06:05:42.179Z,26.28
2022-08-17T06:09:30.173Z,26.47
2022-08-17T06:13:08.003Z,26.74
2022-08-17T06:16:43.327Z,26.83
2022-08-17T06:20:10.338Z,26.49
2022-08-17T06:23:39.169Z,26.65
2022-08-17T06:27:32.414Z,26.91
2022-08-17T06:30:59.447Z,27.01
2022-08-17T06:34:25.233Z,26.91
2022-08-17T06:37:54.528Z,27.09
2022-08-17T06:42:01.317Z,26.92
2022-08-17T06:45:33.011Z,27.12
2022-08-17T06:49:19.814Z,27.31
2022-08-17T06:52:50.373Z,27.67
2022-08-17T06:56:25.189Z,28.05
2022-08-17T07:00:14.007Z,27.80
2022-08-17T07:03:46.309Z,27.70
2022-08-17T07:07:30.073Z,27.63
2022-08-17T07:10:57.085Z,27.57
2022-08-17T07:14:30.261Z,27.59
2022-08-17T07:17:52.326Z,27.63
2022-08-17T07:21:26.836Z,27.56
2022-08-17T07:25:09.903Z,27.80
2022-08-17T07:28:39.183Z,28.34
2022-08-17T07:32:00.814Z,28.53
2022-08-17T07:35:41.240Z,28.56
2022-08-17T07:39:05.897Z,28.53
2022-08-17T07:42:28.590Z,28.52
2022-08-17T07:46:13.874Z,28.79
2022-08-17T07:49:41.300Z,28.65
2022-08-17T07:53:23.333Z,28.67
2022-08-17T07:57:27.982Z,28.73
2022-08-17T08:01:10.360Z,29.30
2022-08-17T08:04:59.881Z,29.44
2022-08-17T08:08:31.058Z,29.59
2022-08-17T08:11:52.892Z,29.58
2022-08-17T08:15:36.421Z,29.73
2022-08-17T08:19:02.947Z,29.95
2022-08-17T08:23:06.488Z,29.98
2022-08-17T08:27:02.875Z,30.21
2022-08-17T08:30:24.666Z,30.58
2022-08-17T08:34:46.335Z,30.57
2022-08-17T08:38:06.033Z,30.58
2022-08-17T08:41:51.393Z,30.68
2022-08-17T08:45:28.254Z,30.92
2022-08-17T08:48:56.376Z,31.06
2022-08-17T08:52:31.059Z,31.47
2022-08-17T08:56:01.572Z,31.97
2022-08-17T09:00:00.586Z,32.15
2022-08-17T09:03:52.669Z,32.04
2022-08-17T09:07:36.551Z,32.80
2022-08-17T09:11:16.690Z,33.11
2022-08-17T09:14:47.473Z,32.86
2022-08-17T09:19:01.747Z,32.67
2022-08-17T09:22:12.414Z,32.86
2022-08-17T09:25:49.900Z,32.83
2022-08-17T09:29:14.997Z,32.72
2022-08-17T09:32:41.648Z,32.91
2022-08-17T09:36:14.834Z,32.99
2022-08-17T09:39:40.635Z,33.30
2022-08-17T09:43:14.421Z,32.79
2022-08-17T09:46:57.634Z,31.91
2022-08-17T09:51:05.342Z,32.77
2022-08-17T09:54:38.660Z,33.11
2022-08-17T09:58:20.156Z,32.91
2022-08-17T10:01:51.473Z,32.90
2022-08-17T10:05:21.860Z,33.06
2022-08-17T10:09:04.523Z,33.21
2022-08-17T10:13:18.364Z,32.91
2022-08-17T10:17:00.634Z,33.17
2022-08-17T10:20:42.957Z,33.47
2022-08-17T10:24:39.485Z,33.89
2022-08-17T10:28:29.383Z,33.88
2022-08-17T10:32:04.670Z,34.40
2022-08-17T10:35:34.052Z,34.65
2022-08-17T10:39:22.770Z,34.87
2022-08-17T10:42:51.498Z,35.03
2022-08-17T10:46:54.278Z,34.87
2022-08-17T10:50:53.368Z,34.24
2022-08-17T10:54:58.264Z,34.89
2022-08-17T10:58:22.085Z,35.05
2022-08-17T11:02:03.964Z,35.30
2022-08-17T11:05:34.604Z,35.60
2022-08-17T11:09:13.041Z,35.97
2022-08-17T11:12:37.747Z,36.12
2022-08-17T11:16:35.098Z,35.54
2022-08-17T11:20:37.601Z,35.50
2022-08-17T11:24:24.150Z,35.15
2022-08-17T11:27:53.574Z,35.29
2022-08-17T11:31:37.763Z,35.72
2022-08-17T11:35:12.992Z,36.12
2022-08-17T11:38:46.203Z,36.04
2022-08-17T11:42:26.486Z,35.85
2022-08-17T11:46:51.776Z,36.00
2022-08-17T11:50:41.015Z,35.12
2022-08-17T11:58:01.916Z,36.06
2022-08-17T12:01:23.540Z,35.88
2022-08-17T12:05:03.500Z,35.63
2022-08-17T12:08:32.602Z,35.77
2022-08-17T12:12:12.876Z,35.12
2022-08-17T12:15:49.247Z,34.77
2022-08-17T12:19:27.610Z,34.33
2022-08-17T12:23:01.183Z,34.87
2022-08-17T12:26:30.251Z,35.09
2022-08-17T12:29:57.385Z,35.13
2022-08-17T12:33:25.360Z,34.85
2022-08-17T12:36:51.981Z,34.62
2022-08-17T12:40:27.185Z,34.57
2022-08-17T12:44:12.263Z,34.89
2022-08-17T12:47:40.359Z,35.22
2022-08-17T12:51:03.764Z,35.54
2022-08-17T12:54:33.666Z,35.61
2022-08-17T12:58:00.845Z,35.61
2022-08-17T13:01:27.084Z,35.72
2022-08-17T13:04:49.250Z,35.76
2022-08-17T13:08:18.010Z,35.69
2022-08-17T13:11:52.737Z,35.29
2022-08-17T13:15:29.549Z,35.23
2022-08-17T13:19:09.487Z,35.39
2022-08-17T13:22:32.551Z,34.94
2022-08-17T13:25:56.007Z,35.27
2022-08-17T13:29:25.687Z,35.42
2022-08-17T13:32:49.771Z,35.45
2022-08-17T13:36:11.363Z,35.49
2022-08-17T13:39:41.916Z,35.78
2022-08-17T13:43:04.515Z,36.05
2022-08-17T13:46:31.858Z,35.93
2022-08-17T13:49:55.398Z,35.77
2022-08-17T13:53:25.728Z,35.76
2022-08-17T13:56:57.763Z,35.76
2022-08-17T14:00:31.664Z,35.72
2022-08-17T14:03:56.142Z,35.74
2022-08-17T14:07:19.320Z,35.94
2022-08-17T14:10:40.962Z,35.76
2022-08-17T14:14:06.979Z,35.56
2022-08-17T14:17:34.968Z,35.13
2022-08-17T14:21:04.316Z,35.20
2022-08-17T14:24:28.048Z,34.85
2022-08-17T14:27:53.127Z,35.02
2022-08-17T14:31:22.057Z,34.99
2022-08-17T14:34:46.068Z,35.09
2022-08-17T14:38:07.998Z,34.84
2022-08-17T14:41:29.683Z,34.96
2022-08-17T14:44:58.805Z,34.79
2022-08-17T14:48:20.382Z,34.95
2022-08-17T14:51:44.087Z,35.02
2022-08-17T14:55:06.804Z,35.12
2022-08-17T14:58:29.654Z,35.15
2022-08-17T15:01:57.619Z,35.19
2022-08-17T15:05:21.330Z,35.09
2022-08-17T15:08:43.554Z,34.94
2022-08-17T15:12:07.357Z,34.95
2022-08-17T15:15:29.407Z,34.94
2022-08-17T15:18:55.732Z,34.94
2022-08-17T15:22:24.501Z,34.95
2022-08-17T15:25:48.825Z,35.00
2022-08-17T15:29:12.615Z,34.82
2022-08-17T15:32:37.930Z,34.70
2022-08-17T15:36:02.528Z,34.62
2022-08-17T15:39:26.373Z,34.68
2022-08-17T15:42:48.060Z,34.57
2022-08-17T15:46:15.499Z,34.43
2022-08-17T15:49:40.792Z,34.31
2022-08-17T15:53:03.343Z,34.41
2022-08-17T15:56:28.235Z,34.48
2022-08-17T15:59:53.102Z,34.34
2022-08-17T16:03:58.269Z,34.28
2022-08-17T16:07:04.699Z,34.27
2022-08-17T16:10:34.721Z,34.09
2022-08-17T16:13:57.069Z,34.04
2022-08-17T16:17:38.402Z,34.02
2022-08-17T16:21:24.495Z,33.97
2022-08-17T16:24:57.359Z,33.83
2022-08-17T16:28:19.315Z,33.72
2022-08-17T16:31:42.396Z,33.66
2022-08-17T16:35:14.354Z,33.68
2022-08-17T16:38:36.363Z,33.54
2022-08-17T16:41:58.007Z,33.55
2022-08-17T16:45:24.608Z,33.41
2022-08-17T16:48:48.708Z,33.28
2022-08-17T16:52:11.053Z,33.44
2022-08-17T16:55:35.586Z,33.25
2022-08-17T16:58:59.583Z,33.11
2022-08-17T17:02:40.597Z,33.07
2022-08-17T17:06:16.815Z,33.00
2022-08-17T17:09:46.474Z,32.97
2022-08-17T17:13:16.872Z,32.90
2022-08-17T17:16:41.059Z,32.91
2022-08-17T17:20:11.935Z,32.90
2022-08-17T17:23:53.629Z,32.72
2022-08-17T17:27:39.443Z,32.59
2022-08-17T17:31:15.591Z,32.51
2022-08-17T17:34:49.063Z,32.39
2022-08-17T17:38:23.413Z,32.28
2022-08-17T17:42:07.532Z,32.16
2022-08-17T17:45:45.933Z,31.98
2022-08-17T17:49:11.146Z,31.89
2022-08-17T17:52:59.814Z,31.78
2022-08-17T17:56:43.043Z,31.60
2022-08-17T18:00:47.812Z,31.46
2022-08-17T18:04:30.779Z,31.37
2022-08-17T18:08:32.421Z,31.26
2022-08-17T18:12:31.507Z,31.09
2022-08-17T18:15:54.425Z,30.96
2022-08-17T18:19:21.388Z,30.82
2022-08-17T18:22:42.988Z,30.64
2022-08-17T18:26:10.309Z,30.48
2022-08-17T18:29:37.517Z,30.33
2022-08-17T18:33:31.565Z,30.24
2022-08-17T18:36:56.645Z,30.09
2022-08-17T18:40:20.710Z,29.98
2022-08-17T18:44:06.043Z,29.88
2022-08-17T18:47:29.471Z,29.71
2022-08-17T18:50:55.866Z,29.50
2022-08-17T18:54:21.297Z,29.37
2022-08-17T18:57:49.378Z,29.32
2022-08-17T19:01:21.392Z,29.18
2022-08-17T19:05:02.593Z,29.13
2022-08-17T19:08:32.684Z,29.07
2022-08-17T19:11:54.496Z,28.89
2022-08-17T19:15:34.595Z,28.69
2022-08-17T19:19:27.185Z,28.63
2022-08-17T19:23:08.377Z,28.56
2022-08-17T19:26:54.246Z,28.12
2022-08-17T19:30:21.694Z,27.97
2022-08-17T19:33:43.614Z,27.90
2022-08-17T19:37:32.739Z,27.91
2022-08-17T19:41:31.155Z,28.01
2022-08-17T19:44:57.748Z,27.98
2022-08-17T19:48:46.652Z,27.84
2022-08-17T19:52:37.419Z,27.79
2022-08-17T19:56:07.881Z,27.76
2022-08-17T19:59:48.969Z,27.70
2022-08-17T20:03:19.460Z,27.71
2022-08-17T20:06:45.461Z,27.79
2022-08-17T20:10:13.542Z,27.57
2022-08-17T20:13:39.907Z,27.50
2022-08-17T20:17:12.493Z,27.12
2022-08-17T20:20:48.858Z,26.61
2022-08-17T20:24:34.833Z,26.47
2022-08-17T20:31:40.976Z,26.61
2022-08-17T20:35:10.669Z,26.63
2022-08-17T20:38:59.682Z,26.61
2022-08-17T20:42:22.355Z,26.47
2022-08-17T20:46:43.478Z,26.37
2022-08-17T20:50:10.337Z,26.51
2022-08-17T20:54:16.175Z,26.41
2022-08-17T20:57:41.961Z,26.26
2022-08-17T21:01:17.297Z,26.10
2022-08-17T21:05:07.285Z,26.12
2022-08-17T21:09:16.817Z,25.96
2022-08-17T21:12:47.921Z,25.85
2022-08-17T21:16:48.271Z,25.82
2022-08-17T21:20:22.525Z,25.81
2022-08-17T21:23:44.101Z,25.72
2022-08-17T21:27:28.012Z,25.27
2022-08-17T21:30:58.817Z,25.03
2022-08-17T21:34:45.248Z,25.03
2022-08-17T21:38:16.694Z,25.22
2022-08-17T21:41:54.834Z,25.44
2022-08-17T21:45:37.539Z,25.51
2022-08-17T21:49:13.384Z,25.38
2022-08-17T21:52:35.627Z,25.37
2022-08-17T21:55:57.702Z,25.38
2022-08-17T21:59:39.917Z,25.31
2022-08-17T22:03:05.113Z,25.43
2022-08-17T22:06:40.353Z,25.43
2022-08-17T22:10:01.899Z,25.51
2022-08-17T22:13:29.757Z,25.43
2022-08-17T22:17:19.014Z,25.34
2022-08-17T22:20:53.787Z,25.31
2022-08-17T22:24:24.887Z,25.33
2022-08-17T22:28:05.304Z,25.27
2022-08-17T22:31:30.020Z,25.19
2022-08-17T22:35:26.721Z,25.22
2022-08-17T22:38:49.232Z,25.23
2022-08-17T22:42:17.371Z,25.28
2022-08-17T22:45:58.975Z,25.02
2022-08-17T22:49:32.359Z,25.02
2022-08-17T22:53:19.843Z,25.03
2022-08-17T22:57:11.833Z,25.06
2022-08-17T23:00:54.692Z,25.02
2022-08-17T23:04:37.601Z,24.93
2022-08-17T23:07:59.126Z,24.96
2022-08-17T23:11:36.712Z,24.83
2022-08-17T23:15:18.952Z,24.72
2022-08-17T23:18:40.821Z,24.69
2022-08-17T23:22:06.206Z,24.79
2022-08-17T23:25:32.588Z,24.79
2022-08-17T23:28:54.147Z,24.62
2022-08-17T23:32:22.243Z,24.72
2022-08-17T23:35:44.571Z,24.65
2022-08-17T23:39:15.533Z,24.65
2022-08-17T23:42:48.672Z,24.68
2022-08-17T23:46:10.307Z,24.67
2022-08-17T23:49:37.495Z,24.67
2022-08-17T23:53:03.026Z,24.59
2022-08-17T23:56:25.839Z,24.54
2022-08-17T23:59:49.994Z,24.48
